Time;durP1;ratioP1;P1;durP2;ratioP2;P2;SDS_P1;SDS_P2;PMS_P1;PMS_P2;Temp;Humidity;BMP_temperature;BMP_pressure;BME280_temperature;BME280_humidity;BME280_pressure;Samples;Min_cycle;Max_cycle;Signal;HPM_P1;HPM_P2
2023/04/07 00:01:30;;;;;;;3.37;3.13;;;;;;;6.52;68.46;99932.41;5050350;28;20694;-74
2023/04/07 00:03:58;;;;;;;1.67;1.57;;;;;;;6.50;68.23;99929.78;5031626;28;20192;-74
2023/04/07 00:06:26;;;;;;;1.00;1.00;;;;;;;6.56;67.77;99936.81;5050752;28;20202;-74
2023/04/07 00:08:53;;;;;;;1.50;1.50;;;;;;;6.48;68.07;99931.44;5050541;28;20203;-74
2023/04/07 00:11:20;;;;;;;1.00;1.00;;;;;;;6.48;68.00;99927.19;5050389;28;20303;-73
2023/04/07 00:13:46;;;;;;;1.67;1.67;;;;;;;6.49;67.64;99934.06;5050394;28;20196;-74
2023/04/07 00:16:13;;;;;;;1.17;1.17;;;;;;;6.52;67.26;99940.13;5050794;28;20210;-73
2023/04/07 00:18:40;;;;;;;2.60;2.50;;;;;;;6.48;66.80;99931.44;5049771;28;20231;-74
2023/04/07 00:21:08;;;;;;;6.90;1.97;;;;;;;6.52;67.49;99940.13;5042495;28;20203;-74
2023/04/07 00:23:35;;;;;;;1.37;1.37;;;;;;;6.49;66.09;99934.06;5011846;28;20671;-74
2023/04/07 00:26:01;;;;;;;1.10;1.10;;;;;;;6.30;65.64;99911.19;5048345;28;20917;-74
2023/04/07 00:28:28;;;;;;;1.03;1.03;;;;;;;6.46;65.58;99923.66;5050147;28;20196;-73
2023/04/07 00:30:55;;;;;;;1.17;1.17;;;;;;;6.55;64.65;99930.78;5032015;28;20204;-73
2023/04/07 00:33:22;;;;;;;1.17;1.17;;;;;;;6.36;64.41;99908.78;5050053;28;20702;-73
2023/04/07 00:35:48;;;;;;;1.00;1.00;;;;;;;6.54;64.93;99930.75;5031356;28;21032;-73
2023/04/07 00:38:17;;;;;;;1.00;1.00;;;;;;;6.56;66.29;99940.28;5049987;28;20227;-72
2023/04/07 00:40:43;;;;;;;1.00;1.00;;;;;;;6.04;65.04;99855.50;5049881;28;20207;-74
2023/04/07 00:43:10;;;;;;;1.00;1.00;;;;;;;6.55;65.10;99937.66;5050068;28;20204;-73
2023/04/07 00:45:37;;;;;;;1.00;1.00;;;;;;;6.57;65.07;99930.81;5050342;28;20196;-72
2023/04/07 00:48:05;;;;;;;11.07;10.03;;;;;;;6.46;65.26;99933.97;5049101;28;20204;-73
2023/04/07 00:50:32;;;;;;;1.30;1.30;;;;;;;6.52;64.55;99937.56;5039114;28;20274;-76
2023/04/07 00:52:59;;;;;;;1.00;1.00;;;;;;;6.44;64.31;99933.06;5049963;28;20566;-74
2023/04/07 00:55:27;;;;;;;1.40;1.40;;;;;;;6.54;64.05;99933.31;5052873;28;20206;-74
2023/04/07 00:57:54;;;;;;;1.13;1.13;;;;;;;6.48;63.83;99926.31;5054003;28;20289;-73
2023/04/07 01:00:21;;;;;;;5.07;4.67;;;;;;;6.53;63.41;99944.47;5053423;28;20615;-75
2023/04/07 01:02:55;;;;;;;0.90;0.90;;;;;;;6.67;62.84;99938.00;5053421;28;20191;-74
2023/04/07 01:05:30;;;;;;;0.80;0.80;;;;;;;6.53;62.85;99922.13;5053765;28;20203;-72
2023/04/07 01:08:06;;;;;;;1.37;1.37;;;;;;;6.70;62.65;99933.81;5053186;28;20203;-73
2023/04/07 01:10:41;;;;;;;0.93;0.93;;;;;;;6.64;61.95;99925.00;5053421;28;20191;-73
2023/04/07 01:13:17;;;;;;;1.00;1.00;;;;;;;6.65;62.50;99937.06;5053278;28;20203;-73
2023/04/07 01:15:47;;;;;;;1.00;1.00;;;;;;;6.69;62.65;99931.19;5052883;28;20777;-74
2023/04/07 01:18:21;;;;;;;0.90;0.90;;;;;;;6.63;62.30;99931.00;5053341;28;20219;-74
2023/04/07 01:20:50;;;;;;;1.20;1.20;;;;;;;6.62;62.42;99931.84;5052434;28;20195;-73
2023/04/07 01:23:25;;;;;;;12.53;2.57;;;;;;;6.64;62.00;99932.75;5035838;28;20204;-74
2023/04/07 01:26:07;;;;;;;0.87;0.87;;;;;;;6.57;62.35;99923.97;5040300;28;20286;-73
2023/04/07 01:29:15;;;;;;;1.20;1.20;;;;;;;6.70;61.23;99932.94;5053180;28;20726;-73
2023/04/07 01:31:46;;;;;;;0.87;0.87;;;;;;;6.66;62.46;99931.09;5030784;28;20204;-73
2023/04/07 01:34:14;;;;;;;1.00;1.00;;;;;;;6.67;60.93;99938.00;5031038;28;20667;-74
2023/04/07 01:36:42;;;;;;;1.20;1.20;;;;;;;6.71;61.04;99934.66;5029687;28;20196;-74
2023/04/07 01:39:10;;;;;;;0.90;0.90;;;;;;;6.29;60.53;99857.94;5026061;28;20649;-74
2023/04/07 01:41:38;;;;;;;1.00;1.00;;;;;;;6.66;61.03;99936.25;5012581;28;20193;-73
2023/04/07 01:44:07;;;;;;;0.90;0.90;;;;;;;6.60;60.98;99929.22;5019318;28;20200;-74
2023/04/07 01:46:35;;;;;;;0.87;0.87;;;;;;;6.46;61.55;99909.91;5030651;28;20717;-73
2023/04/07 01:49:04;;;;;;;1.00;1.00;;;;;;;6.54;62.36;99926.47;5014895;28;20197;-74
2023/04/07 01:51:33;;;;;;;0.90;0.90;;;;;;;6.54;62.06;99930.75;5011715;28;20232;-73
2023/04/07 01:54:02;;;;;;;1.63;1.63;;;;;;;6.56;61.35;99931.66;5014824;28;20216;-73
2023/04/07 01:56:29;;;;;;;0.93;0.93;;;;;;;6.48;60.53;99927.19;5017195;28;20243;-73
2023/04/07 01:58:56;;;;;;;1.33;1.33;;;;;;;6.26;61.10;99893.91;5028266;28;20224;-73
2023/04/07 02:01:22;;;;;;;1.10;1.10;;;;;;;6.40;61.04;99923.50;5014901;28;20266;-73
2023/04/07 02:03:54;;;;;;;0.90;0.90;;;;;;;6.63;60.13;99925.88;5051982;28;20933;-73
2023/04/07 02:06:28;;;;;;;2.03;1.93;;;;;;;6.62;60.77;99924.09;5051945;28;20203;-73
2023/04/07 02:08:59;;;;;;;1.67;1.57;;;;;;;6.57;60.10;99925.66;5017022;28;20271;-73
2023/04/07 02:11:27;;;;;;;0.90;0.90;;;;;;;6.51;60.08;99925.50;5052020;28;20230;-73
2023/04/07 02:13:55;;;;;;;0.90;0.90;;;;;;;6.56;58.96;99922.25;4984670;28;20200;-73
2023/04/07 02:16:22;;;;;;;1.47;1.47;;;;;;;6.61;58.44;99915.50;5052396;28;20253;-73
2023/04/07 02:18:50;;;;;;;1.10;1.10;;;;;;;6.69;58.01;99916.59;4997778;28;20555;-73
2023/04/07 02:21:18;;;;;;;1.10;1.10;;;;;;;6.68;58.06;99924.28;5048424;28;20206;-73
2023/04/07 02:23:46;;;;;;;0.97;0.97;;;;;;;6.76;58.18;99925.38;5051641;28;20206;-73
2023/04/07 02:26:13;;;;;;;1.23;1.23;;;;;;;6.56;58.14;99913.66;5051755;28;20210;-73
2023/04/07 02:28:40;;;;;;;1.00;1.00;;;;;;;6.64;58.32;99922.44;5017265;28;20199;-74
2023/04/07 02:31:07;;;;;;;1.53;1.53;;;;;;;6.63;58.30;99921.59;5052316;28;20200;-73
2023/04/07 02:33:34;;;;;;;0.90;0.90;;;;;;;6.73;58.60;99927.84;5051816;28;20287;-74
2023/04/07 02:36:00;;;;;;;1.40;1.40;;;;;;;6.60;58.32;99925.78;5052177;28;20690;-74
2023/04/07 02:38:27;;;;;;;1.00;1.00;;;;;;;6.53;58.42;99918.72;5051123;28;20598;-72
2023/04/07 02:40:55;;;;;;;0.90;0.90;;;;;;;6.69;58.38;99931.19;5051224;28;20631;-72
2023/04/07 02:43:24;;;;;;;0.90;0.90;;;;;;;6.63;58.14;99931.00;5050799;28;20195;-73
2023/04/07 02:45:51;;;;;;;0.90;0.90;;;;;;;6.66;58.51;99933.66;5051456;28;20208;-73
2023/04/07 02:48:17;;;;;;;0.90;0.90;;;;;;;6.72;57.97;99931.25;5051233;28;20206;-72
2023/04/07 02:50:44;;;;;;;1.10;1.10;;;;;;;6.67;57.59;99935.44;5051421;28;20203;-72
2023/04/07 02:53:11;;;;;;;0.80;0.80;;;;;;;6.59;58.85;99924.03;5032827;28;20195;-72
2023/04/07 02:55:38;;;;;;;1.07;1.07;;;;;;;6.69;58.41;99931.19;5030874;28;20682;-72
2023/04/07 02:58:06;;;;;;;0.90;0.90;;;;;;;6.58;58.15;99933.44;5049732;28;20682;-72
2023/04/07 03:00:33;;;;;;;0.90;0.90;;;;;;;6.60;57.96;99924.06;5051215;28;20235;-73
2023/04/07 03:03:00;;;;;;;1.10;1.10;;;;;;;6.52;58.56;99914.38;5051601;28;20256;-73
2023/04/07 03:05:27;;;;;;;1.23;1.23;;;;;;;6.63;58.14;99938.75;5051684;28;20295;-73
2023/04/07 03:07:54;;;;;;;0.83;0.83;;;;;;;6.59;58.62;99934.34;5051025;28;20204;-73
2023/04/07 03:10:21;;;;;;;1.20;1.20;;;;;;;6.46;57.80;99908.22;5051325;28;20573;-73
2023/04/07 03:12:47;;;;;;;1.07;1.07;;;;;;;6.67;58.32;99930.28;5051756;28;20590;-74
2023/04/07 03:15:15;;;;;;;0.90;0.90;;;;;;;6.65;58.45;99929.34;5050708;28;20645;-73
2023/04/07 03:17:42;;;;;;;0.80;0.80;;;;;;;6.59;57.65;99935.22;5050738;28;20226;-73
2023/04/07 03:20:09;;;;;;;1.10;1.10;;;;;;;6.57;58.28;99925.66;5050677;28;20187;-73
2023/04/07 03:22:36;;;;;;;10.20;2.40;;;;;;;6.47;57.77;99925.44;5051551;28;20206;-72
2023/04/07 03:25:03;;;;;;;1.80;1.73;;;;;;;6.61;57.43;99930.09;5050328;28;20199;-73
2023/04/07 03:27:30;;;;;;;1.20;1.20;;;;;;;6.65;57.47;99937.94;5050682;28;20198;-73
2023/04/07 03:29:57;;;;;;;1.00;1.00;;;;;;;6.64;58.14;99930.16;5051001;28;20198;-73
2023/04/07 03:32:25;;;;;;;1.23;1.23;;;;;;;6.69;57.19;99939.78;5050931;28;20285;-73
2023/04/07 03:34:52;;;;;;;0.90;0.90;;;;;;;6.68;57.15;99934.56;5050968;28;20672;-73
2023/04/07 03:37:19;;;;;;;0.80;0.80;;;;;;;6.68;57.18;99939.72;5050790;28;20690;-72
2023/04/07 03:39:46;;;;;;;2.60;2.50;;;;;;;6.70;56.83;99951.84;5050928;28;20226;-73
2023/04/07 03:42:13;;;;;;;1.00;1.00;;;;;;;6.52;57.30;99922.09;5050495;28;20580;-73
2023/04/07 03:44:39;;;;;;;1.07;1.07;;;;;;;6.68;56.85;99962.91;5050883;28;20207;-74
2023/04/07 03:47:06;;;;;;;1.00;1.00;;;;;;;6.64;56.83;99958.50;5050389;28;20253;-73
2023/04/07 03:49:37;;;;;;;0.90;0.90;;;;;;;6.63;57.14;99949.94;5050375;28;20689;-73
2023/04/07 03:52:04;;;;;;;1.00;1.00;;;;;;;6.69;57.06;99962.97;5032000;28;20188;-73
2023/04/07 03:54:31;;;;;;;2.03;2.00;;;;;;;6.64;57.09;99967.09;5050862;28;20195;-73
2023/04/07 03:56:57;;;;;;;1.10;1.10;;;;;;;6.66;56.92;99962.00;5047258;28;20736;-73
2023/04/07 03:59:24;;;;;;;1.00;1.00;;;;;;;6.73;56.74;99972.53;5050378;28;20246;-73
2023/04/07 04:01:51;;;;;;;0.90;0.90;;;;;;;6.70;57.27;99969.00;5050096;28;20309;-73
2023/04/07 04:04:18;;;;;;;0.90;0.90;;;;;;;6.72;57.03;99969.91;5050393;28;20721;-74
2023/04/07 04:06:46;;;;;;;1.10;1.10;;;;;;;6.73;57.32;99969.97;5050704;28;20273;-73
2023/04/07 04:09:13;;;;;;;1.03;1.03;;;;;;;6.67;58.46;99979.22;5050106;28;20210;-73
2023/04/07 04:11:40;;;;;;;1.10;1.10;;;;;;;6.74;57.28;99982.00;5050465;28;20238;-73
2023/04/07 04:14:07;;;;;;;1.13;1.13;;;;;;;6.73;57.47;99985.41;5050153;28;20214;-73
2023/04/07 04:16:34;;;;;;;1.03;1.03;;;;;;;6.41;57.20;99922.69;5014543;28;20199;-73
2023/04/07 04:19:01;;;;;;;1.30;1.30;;;;;;;6.63;57.63;99975.69;5049839;28;20227;-73
2023/04/07 04:21:28;;;;;;;1.10;1.10;;;;;;;6.28;57.66;99917.09;5050279;28;20207;-74
2023/04/07 04:23:56;;;;;;;0.83;0.83;;;;;;;6.72;57.71;99978.50;5048026;28;20211;-73
2023/04/07 04:26:24;;;;;;;1.43;1.43;;;;;;;6.77;57.50;99991.53;5049641;28;20702;-73
2023/04/07 04:28:51;;;;;;;0.90;0.90;;;;;;;6.81;57.34;99994.22;5051788;28;20191;-74
2023/04/07 04:31:18;;;;;;;1.20;1.20;;;;;;;6.41;57.51;99921.81;5054039;28;20199;-74
2023/04/07 04:33:45;;;;;;;1.47;1.47;;;;;;;6.78;57.41;99977.78;5052838;28;20196;-73
2023/04/07 04:36:12;;;;;;;1.40;1.40;;;;;;;6.95;57.24;100002.34;5052484;28;20273;-74
2023/04/07 04:38:38;;;;;;;0.90;0.90;;;;;;;7.06;57.17;100005.22;5053977;28;20231;-75
2023/04/07 04:41:07;;;;;;;0.90;0.90;;;;;;;7.05;56.48;99980.28;5053687;28;20697;-75
2023/04/07 04:43:34;;;;;;;1.00;1.00;;;;;;;7.13;56.80;100008.03;5014142;28;20231;-76
2023/04/07 04:46:01;;;;;;;4.07;3.70;;;;;;;6.99;56.75;99991.31;5050440;28;20278;-76
2023/04/07 04:48:27;;;;;;;1.43;1.43;;;;;;;7.28;56.67;100015.28;5053993;28;20306;-75
2023/04/07 04:50:54;;;;;;;0.83;0.83;;;;;;;7.22;56.62;100017.69;5053272;28;20201;-74
2023/04/07 04:53:21;;;;;;;0.90;0.90;;;;;;;7.02;56.90;99998.25;5053344;28;20277;-76
2023/04/07 04:55:50;;;;;;;1.30;1.30;;;;;;;7.23;56.73;100022.03;5054187;28;20211;-75
2023/04/07 04:58:19;;;;;;;0.90;0.90;;;;;;;7.13;56.80;99984.81;5020494;28;20207;-74
2023/04/07 05:00:46;;;;;;;1.30;1.30;;;;;;;7.59;56.68;100025.59;5053611;28;20668;-75
2023/04/07 05:03:12;;;;;;;0.83;0.83;;;;;;;7.73;55.28;100018.19;5052427;28;20589;-74
2023/04/07 05:05:39;;;;;;;1.00;1.00;;;;;;;8.06;54.10;100029.34;5052196;28;20204;-75
2023/04/07 05:08:06;;;;;;;1.33;1.33;;;;;;;8.01;54.13;100041.28;5017186;28;20219;-76
2023/04/07 05:10:33;;;;;;;0.90;0.90;;;;;;;8.43;53.65;100042.31;5053692;28;20278;-75
2023/04/07 05:13:00;;;;;;;0.90;0.90;;;;;;;8.74;52.55;100023.16;5013114;28;20659;-74
2023/04/07 05:15:28;;;;;;;0.90;0.90;;;;;;;8.69;53.05;100003.25;5053594;28;20214;-74
2023/04/07 05:17:55;;;;;;;1.00;1.00;;;;;;;8.87;52.33;100050.16;5053749;28;20211;-74
2023/04/07 05:20:21;;;;;;;1.40;1.40;;;;;;;8.59;53.42;100058.16;5053187;28;20231;-74
2023/04/07 05:22:48;;;;;;;0.77;0.77;;;;;;;8.38;54.47;100058.56;5053401;28;20214;-75
2023/04/07 05:25:15;;;;;;;1.10;1.10;;;;;;;8.22;55.09;100067.59;5053314;28;20199;-74
2023/04/07 05:27:42;;;;;;;2.60;2.40;;;;;;;7.97;55.76;100049.78;5018164;28;20214;-76
2023/04/07 05:30:09;;;;;;;1.20;1.20;;;;;;;8.13;55.82;100072.56;5053294;28;20215;-77
2023/04/07 05:32:37;;;;;;;0.90;0.90;;;;;;;7.93;56.04;100068.59;5039907;28;20199;-77
2023/04/07 05:35:05;;;;;;;0.90;0.90;;;;;;;7.72;56.86;100075.78;5050176;28;20219;-78
2023/04/07 05:37:32;;;;;;;1.30;1.30;;;;;;;7.74;56.98;100074.16;5052048;28;20211;-74
2023/04/07 05:39:58;;;;;;;1.03;1.03;;;;;;;7.91;59.49;100081.47;5050430;28;20228;-74
2023/04/07 05:42:25;;;;;;;0.90;0.90;;;;;;;7.64;57.58;100077.28;5052617;28;20202;-74
2023/04/07 05:44:52;;;;;;;1.20;1.20;;;;;;;7.84;57.89;100078.69;5053113;28;20207;-73
2023/04/07 05:47:19;;;;;;;0.97;0.97;;;;;;;8.09;78.35;100065.56;5011180;28;20214;-73
2023/04/07 05:49:47;;;;;;;0.90;0.90;;;;;;;8.16;59.52;100085.56;5052925;28;20199;-74
2023/04/07 05:52:14;;;;;;;2.07;1.93;;;;;;;8.01;59.31;100085.16;5053127;28;20200;-74
2023/04/07 05:54:41;;;;;;;0.80;0.80;;;;;;;7.93;59.29;100078.91;5051603;28;20207;-74
2023/04/07 05:57:08;;;;;;;1.07;1.07;;;;;;;7.93;60.26;100078.91;5052975;28;20203;-74
2023/04/07 05:59:35;;;;;;;0.90;0.90;;;;;;;7.95;60.74;100085.00;5052660;28;20243;-74
2023/04/07 06:02:02;;;;;;;1.47;1.47;;;;;;;8.15;65.43;100085.50;5052886;28;20651;-73
2023/04/07 06:04:29;;;;;;;1.10;1.10;;;;;;;8.29;66.84;100086.75;5034285;28;20204;-73
2023/04/07 06:06:57;;;;;;;1.10;1.10;;;;;;;8.57;86.13;100088.25;5017805;28;20203;-71
2023/04/07 06:09:24;;;;;;;0.93;0.93;;;;;;;8.37;71.19;100093.84;5051597;28;20203;-74
2023/04/07 06:11:51;;;;;;;4.23;4.00;;;;;;;8.44;74.78;100069.91;5051505;28;20286;-74
2023/04/07 06:14:18;;;;;;;1.00;1.00;;;;;;;8.43;68.49;100099.16;5052245;28;20199;-73
2023/04/07 06:16:45;;;;;;;0.93;0.93;;;;;;;8.27;67.35;100070.31;5052909;28;20202;-73
2023/04/07 06:19:12;;;;;;;0.80;0.80;;;;;;;8.36;73.52;100086.91;5046146;28;20318;-74
2023/04/07 06:21:39;;;;;;;1.20;1.20;;;;;;;8.37;68.53;100095.56;5052006;28;20196;-73
2023/04/07 06:24:08;;;;;;;13.83;3.53;;;;;;;8.26;66.50;100103.00;5051914;28;20205;-73
2023/04/07 06:26:35;;;;;;;1.13;1.13;;;;;;;8.27;66.05;100104.75;5050117;28;20199;-73
2023/04/07 06:29:02;;;;;;;1.00;1.00;;;;;;;8.59;74.28;100108.16;5033604;28;20214;-74
2023/04/07 06:31:28;;;;;;;0.90;0.90;;;;;;;8.67;67.73;100103.16;5052480;28;20209;-72
2023/04/07 06:33:55;;;;;;;0.90;0.90;;;;;;;9.03;75.05;100103.06;5052342;28;20210;-73
2023/04/07 06:36:22;;;;;;;1.10;1.10;;;;;;;8.84;67.40;100109.56;5051972;28;20200;-72
2023/04/07 06:38:49;;;;;;;2.33;1.93;;;;;;;8.94;67.54;100120.16;5052228;28;20239;-72
2023/04/07 06:41:18;;;;;;;0.80;0.80;;;;;;;9.06;66.37;100116.94;5052305;28;20269;-71
2023/04/07 06:43:45;;;;;;;1.40;1.40;;;;;;;8.71;66.43;100107.53;5051890;28;20210;-72
2023/04/07 06:46:11;;;;;;;1.67;1.67;;;;;;;8.83;65.97;100121.63;5052312;28;20566;-68
2023/04/07 06:48:38;;;;;;;0.80;0.80;;;;;;;9.04;67.01;100120.34;5052133;28;20706;-73
2023/04/07 06:51:05;;;;;;;0.97;0.97;;;;;;;9.00;64.52;100115.94;5049107;28;20204;-75
2023/04/07 06:53:32;;;;;;;0.90;0.90;;;;;;;9.16;66.47;100125.78;5051431;28;20219;-77
2023/04/07 06:56:06;;;;;;;2.10;2.00;;;;;;;8.87;64.72;100117.38;5052075;28;20675;-77
2023/04/07 06:58:34;;;;;;;1.20;1.20;;;;;;;8.77;65.09;100125.78;5051748;28;20218;-78
2023/04/07 07:01:01;;;;;;;1.30;1.30;;;;;;;8.61;65.13;100103.00;5051464;28;20243;-78
2023/04/07 07:03:28;;;;;;;1.03;1.03;;;;;;;8.97;65.64;100129.69;5017197;28;20219;-76
2023/04/07 07:05:56;;;;;;;0.93;0.93;;;;;;;8.96;65.49;100128.78;5051688;28;20213;-75
2023/04/07 07:08:23;;;;;;;0.97;0.97;;;;;;;9.03;64.77;100134.09;5051103;28;20272;-76
2023/04/07 07:10:49;;;;;;;1.00;1.00;;;;;;;9.09;63.32;100135.13;5051556;28;20207;-72
2023/04/07 07:13:16;;;;;;;1.00;1.00;;;;;;;9.12;62.59;100135.19;5051682;28;20671;-79
2023/04/07 07:15:45;;;;;;;2.53;2.43;;;;;;;9.53;68.44;100140.31;5051187;28;20195;-79
2023/04/07 07:18:12;;;;;;;1.10;1.10;;;;;;;9.78;63.85;100145.13;5051591;28;20601;-71
2023/04/07 07:20:38;;;;;;;9.43;1.50;;;;;;;9.59;60.78;100127.53;5051089;28;20223;-76
2023/04/07 07:23:05;;;;;;;0.67;0.67;;;;;;;9.61;62.10;100146.53;5051670;28;20275;-76
2023/04/07 07:25:32;;;;;;;0.97;0.97;;;;;;;9.66;60.88;100140.63;5051520;28;20203;-75
2023/04/07 07:27:59;;;;;;;0.90;0.90;;;;;;;9.62;60.26;100158.66;5048962;28;20207;-74
2023/04/07 07:30:26;;;;;;;0.80;0.80;;;;;;;9.59;60.18;100133.59;5016229;28;20207;-76
2023/04/07 07:32:55;;;;;;;0.70;0.70;;;;;;;9.59;61.16;100089.59;5051445;28;20234;-76
2023/04/07 07:35:24;;;;;;;2.10;1.67;;;;;;;9.67;59.96;100100.94;5051084;28;20199;-76
2023/04/07 07:37:51;;;;;;;1.02;1.02;;;;;;;10.23;59.18;100156.41;5050780;28;20651;-75
2023/04/07 07:40:18;;;;;;;0.80;0.80;;;;;;;10.15;58.26;100147.59;5051087;28;20227;-77
2023/04/07 07:42:45;;;;;;;0.80;0.80;;;;;;;10.19;61.72;100146.81;5012125;28;20200;-75
2023/04/07 07:45:13;;;;;;;1.05;1.05;;;;;;;10.20;59.88;100166.69;5051142;28;20210;-74
2023/04/07 07:47:40;;;;;;;0.70;0.70;;;;;;;9.86;58.49;100141.88;4999702;28;20724;-77
2023/04/07 07:50:09;;;;;;;0.90;0.90;;;;;;;10.06;57.89;100178.47;5050782;28;20286;-75
2023/04/07 07:52:36;;;;;;;0.80;0.80;;;;;;;10.04;57.76;100168.94;5050795;28;20217;-75
2023/04/07 07:55:03;;;;;;;0.80;0.80;;;;;;;10.05;58.50;100149.97;5051150;28;20218;-75
2023/04/07 07:57:30;;;;;;;0.80;0.80;;;;;;;9.84;58.62;100169.47;5051020;28;20693;-76
2023/04/07 07:59:57;;;;;;;0.80;0.80;;;;;;;10.15;58.77;100176.09;5050794;28;20262;-75
2023/04/07 08:02:29;;;;;;;0.70;0.70;;;;;;;10.00;58.10;100173.19;5050208;28;20210;-75
2023/04/07 08:04:56;;;;;;;0.70;0.70;;;;;;;9.84;58.55;100150.47;5050893;28;20199;-77
2023/04/07 08:07:24;;;;;;;1.67;1.60;;;;;;;10.11;58.04;100166.50;5015831;28;20203;-77
2023/04/07 08:09:51;;;;;;;0.90;0.90;;;;;;;9.85;58.44;100167.72;5050973;28;20196;-77
2023/04/07 08:12:18;;;;;;;1.30;1.30;;;;;;;10.10;58.12;100172.50;5051096;28;20293;-74
2023/04/07 08:14:45;;;;;;;0.90;0.90;;;;;;;10.31;58.06;100149.59;5050728;28;20210;-77
2023/04/07 08:17:12;;;;;;;2.72;1.85;;;;;;;10.29;57.84;100153.91;5050518;28;20294;-75
2023/04/07 08:19:39;;;;;;;1.13;1.13;;;;;;;10.11;57.68;100150.94;5048837;28;20292;-74
2023/04/07 08:22:05;;;;;;;0.82;0.82;;;;;;;10.36;58.09;100167.84;5050361;28;20567;-76
2023/04/07 08:24:34;;;;;;;0.98;0.98;;;;;;;10.40;57.04;100160.16;5049706;28;20218;-76
2023/04/07 08:27:01;;;;;;;1.02;1.02;;;;;;;10.51;57.98;100167.22;5046744;28;20234;-77
2023/04/07 08:29:28;;;;;;;1.20;1.20;;;;;;;10.69;57.25;100163.22;5049388;28;20287;-77
2023/04/07 08:31:54;;;;;;;0.90;0.90;;;;;;;10.82;56.69;100170.31;5045217;28;20199;-75
2023/04/07 08:34:21;;;;;;;1.00;1.00;;;;;;;10.51;56.27;100160.31;5045137;28;20210;-76
2023/04/07 08:36:49;;;;;;;0.98;0.98;;;;;;;10.49;57.22;100172.38;5048309;28;20700;-78
2023/04/07 08:39:16;;;;;;;2.05;1.95;;;;;;;11.11;54.59;100168.16;5049586;28;20663;-77
2023/04/07 08:41:45;;;;;;;0.93;0.93;;;;;;;11.38;53.90;100158.13;5049290;28;20223;-76
2023/04/07 08:44:15;;;;;;;1.00;1.00;;;;;;;11.24;53.06;100164.00;5050241;28;20238;-76
2023/04/07 08:46:42;;;;;;;1.10;1.10;;;;;;;11.15;53.07;100144.00;5049824;28;20195;-77
2023/04/07 08:49:12;;;;;;;0.82;0.82;;;;;;;11.09;53.25;100164.69;5050001;28;20207;-77
2023/04/07 08:51:45;;;;;;;2.40;2.30;;;;;;;11.28;52.99;100158.88;5045792;28;20571;-76
2023/04/07 08:54:13;;;;;;;1.10;1.10;;;;;;;11.16;52.46;100157.84;5049947;28;20207;-76
2023/04/07 08:56:41;;;;;;;1.83;1.75;;;;;;;11.09;51.98;100149.13;5049479;28;20580;-77
2023/04/07 08:59:11;;;;;;;1.63;1.52;;;;;;;11.12;51.88;100180.28;5014354;28;20611;-76
2023/04/07 09:01:39;;;;;;;1.00;1.00;;;;;;;10.99;52.62;100183.53;5049690;28;20223;-76
2023/04/07 09:04:07;;;;;;;0.90;0.90;;;;;;;10.94;53.43;100177.44;5049579;28;20207;-74
2023/04/07 09:06:34;;;;;;;0.93;0.93;;;;;;;10.79;54.25;100175.47;5048848;28;20548;-76
2023/04/07 09:09:02;;;;;;;3.10;1.75;;;;;;;11.11;53.59;100188.91;5048980;28;20238;-76
2023/04/07 09:11:30;;;;;;;1.25;1.25;;;;;;;11.25;52.92;100195.16;5049888;28;20200;-75
2023/04/07 09:13:57;;;;;;;1.67;1.67;;;;;;;10.91;51.77;100148.84;5050100;28;20272;-75
2023/04/07 09:16:28;;;;;;;1.00;1.00;;;;;;;10.85;53.75;100179.84;5052517;28;20290;-75
2023/04/07 09:18:55;;;;;;;2.00;1.85;;;;;;;10.56;53.48;100187.16;5053465;28;20200;-74
2023/04/07 09:21:22;;;;;;;0.63;0.63;;;;;;;11.03;53.33;100174.94;5053467;28;20680;-76
2023/04/07 09:23:49;;;;;;;0.80;0.80;;;;;;;11.30;52.76;100172.75;5053389;28;20210;-75
2023/04/07 09:26:22;;;;;;;1.00;1.00;;;;;;;11.18;52.31;100184.69;5053497;28;20211;-73
2023/04/07 09:28:51;;;;;;;1.35;1.35;;;;;;;11.56;51.96;100174.81;5053213;28;20674;-74
2023/04/07 09:31:18;;;;;;;0.90;0.90;;;;;;;11.08;50.91;100100.66;5053332;28;20203;-75
2023/04/07 09:33:46;;;;;;;0.70;0.70;;;;;;;12.10;50.39;100174.59;5053288;28;20222;-74
2023/04/07 09:36:13;;;;;;;0.88;0.88;;;;;;;11.80;51.23;100156.97;5018405;28;20204;-76
2023/04/07 09:38:41;;;;;;;0.82;0.82;;;;;;;12.19;50.64;100170.38;5053260;28;20196;-74
2023/04/07 09:41:09;;;;;;;0.90;0.90;;;;;;;12.48;50.18;100174.97;5053186;28;20219;-76
2023/04/07 09:43:38;;;;;;;1.05;1.05;;;;;;;12.66;49.10;100180.31;5052937;28;20203;-76
2023/04/07 09:46:13;;;;;;;1.00;1.00;;;;;;;12.55;49.91;100177.63;5052831;28;20655;-75
2023/04/07 09:48:40;;;;;;;0.80;0.80;;;;;;;12.33;49.59;100173.97;5034738;28;20206;-75
2023/04/07 09:51:11;;;;;;;0.90;0.90;;;;;;;12.73;49.17;100175.19;5052981;28;20211;-74
2023/04/07 09:53:43;;;;;;;0.90;0.90;;;;;;;12.90;49.22;100185.72;5034674;28;20200;-75
2023/04/07 09:56:10;;;;;;;1.00;1.00;;;;;;;12.55;48.05;100181.97;5053016;28;20195;-74
2023/04/07 09:58:39;;;;;;;0.90;0.90;;;;;;;12.79;49.38;100197.75;5052784;28;20226;-75
2023/04/07 10:01:08;;;;;;;1.60;1.60;;;;;;;12.66;48.45;100180.31;5052497;28;20266;-75
2023/04/07 10:03:35;;;;;;;0.85;0.85;;;;;;;12.28;49.08;100164.38;5017657;28;20235;-75
2023/04/07 10:06:02;;;;;;;0.90;0.90;;;;;;;12.39;49.60;100176.63;5017675;28;20646;-75
2023/04/07 10:08:32;;;;;;;0.90;0.90;;;;;;;13.14;50.06;100172.00;5052678;28;20645;-75
2023/04/07 10:11:01;;;;;;;0.90;0.90;;;;;;;13.33;48.90;100171.25;5052320;28;20199;-74
2023/04/07 10:13:29;;;;;;;1.00;1.00;;;;;;;12.91;48.53;100183.09;5052396;28;20239;-76
2023/04/07 10:15:56;;;;;;;1.05;1.05;;;;;;;12.81;48.01;100188.22;5052428;28;20232;-74
2023/04/07 10:18:25;;;;;;;1.20;1.20;;;;;;;13.07;47.00;100185.81;5017484;28;20215;-75
2023/04/07 10:20:53;;;;;;;1.10;1.10;;;;;;;13.01;46.11;100181.44;5051985;28;20727;-75
2023/04/07 10:23:25;;;;;;;1.40;1.40;;;;;;;12.70;46.45;100187.31;5052272;28;20206;-75
2023/04/07 10:25:57;;;;;;;1.95;1.88;;;;;;;13.13;46.52;100173.75;5016914;28;20678;-75
2023/04/07 10:28:26;;;;;;;1.95;1.83;;;;;;;13.25;46.19;100172.94;5052338;28;20204;-74
2023/04/07 10:30:53;;;;;;;3.17;2.97;;;;;;;12.76;47.55;100185.63;5051830;28;20675;-74
2023/04/07 10:33:45;;;;;;;0.95;0.95;;;;;;;12.47;47.87;100181.03;5051918;28;20216;-74
2023/04/07 10:36:12;;;;;;;0.95;0.95;;;;;;;12.96;48.37;100182.25;5051742;28;20631;-75
2023/04/07 10:38:40;;;;;;;1.02;1.02;;;;;;;12.84;47.88;100189.13;5052181;28;20562;-74
2023/04/07 10:41:36;;;;;;;2.75;2.55;;;;;;;13.22;47.75;100180.75;5051866;28;20718;-74
2023/04/07 10:44:03;;;;;;;1.65;1.58;;;;;;;12.91;48.34;100172.69;5051888;28;20239;-75
2023/04/07 10:47:05;;;;;;;0.70;0.70;;;;;;;13.10;47.48;100191.94;5051791;28;20246;-76
2023/04/07 10:49:32;;;;;;;0.60;0.60;;;;;;;13.28;47.26;100173.84;5051723;28;20237;-75
2023/04/07 10:52:24;;;;;;;1.00;1.00;;;;;;;13.18;49.45;100192.88;5051734;28;20234;-75
2023/04/07 10:55:24;;;;;;;0.80;0.80;;;;;;;13.08;50.10;100185.84;5051839;28;20222;-76
2023/04/07 10:58:17;;;;;;;0.93;0.93;;;;;;;13.08;49.71;100154.59;5010058;28;20205;-76
2023/04/07 11:01:27;;;;;;;0.80;0.80;;;;;;;13.30;49.21;100186.88;5010532;28;20236;-74
2023/04/07 11:04:05;;;;;;;0.80;0.80;;;;;;;13.55;49.18;100187.88;5018198;28;20200;-74
2023/04/07 11:06:32;;;;;;;1.20;1.20;;;;;;;13.14;50.59;100196.31;5013386;28;20200;-74
2023/04/07 11:08:58;;;;;;;1.00;1.00;;;;;;;12.66;49.48;100123.09;5012790;28;20200;-75
2023/04/07 11:11:41;;;;;;;1.73;1.73;;;;;;;13.41;49.58;100180.84;5012209;28;20208;-75
2023/04/07 11:14:10;;;;;;;1.73;1.73;;;;;;;13.55;49.70;100200.91;5009566;28;20204;-75
2023/04/07 11:16:39;;;;;;;1.13;1.13;;;;;;;13.62;49.30;100198.34;5009229;28;20223;-76
2023/04/07 11:19:06;;;;;;;1.00;1.00;;;;;;;13.31;48.34;100199.88;4960664;28;20243;-75
2023/04/07 11:21:32;;;;;;;0.90;0.90;;;;;;;13.51;47.38;100199.13;5009278;28;20311;-76
2023/04/07 11:23:59;;;;;;;1.10;1.10;;;;;;;13.98;47.01;100208.03;5009215;28;20203;-76
2023/04/07 11:26:27;;;;;;;2.70;2.15;;;;;;;14.16;46.15;100226.31;5009238;28;20197;-76
2023/04/07 11:28:56;;;;;;;0.80;0.80;;;;;;;14.05;46.62;100211.53;5009313;28;20212;-76
2023/04/07 11:31:25;;;;;;;0.88;0.88;;;;;;;13.82;47.43;100206.22;5009268;28;20216;-75
2023/04/07 11:33:54;;;;;;;0.77;0.77;;;;;;;13.76;45.83;100219.22;5012978;28;20208;-75
2023/04/07 11:36:28;;;;;;;0.90;0.90;;;;;;;13.55;46.71;100209.59;5051065;28;20227;-75
2023/04/07 11:38:56;;;;;;;0.70;0.70;;;;;;;13.23;46.65;100205.94;5050287;28;20234;-74
2023/04/07 11:41:23;;;;;;;0.80;0.80;;;;;;;13.29;46.14;100196.41;5050841;28;20223;-75